sensor_id;sensor_type;location;lat;lon;timestamp;temperature;humidity
4697;DHT22;2362;50.780;0.292;2024-02-21T00:02:12;9.90;98.40
4697;DHT22;2362;50.780;0.292;2024-02-21T00:04:37;9.90;98.40
4697;DHT22;2362;50.780;0.292;2024-02-21T00:07:04;9.90;98.50
4697;DHT22;2362;50.780;0.292;2024-02-21T00:09:30;9.80;98.50
4697;DHT22;2362;50.780;0.292;2024-02-21T00:11:55;9.80;98.50
4697;DHT22;2362;50.780;0.292;2024-02-21T00:14:21;9.80;98.50
4697;DHT22;2362;50.780;0.292;2024-02-21T00:16:47;9.80;98.50
4697;DHT22;2362;50.780;0.292;2024-02-21T00:19:12;9.80;98.60
4697;DHT22;2362;50.780;0.292;2024-02-21T00:21:40;9.80;98.80
4697;DHT22;2362;50.780;0.292;2024-02-21T00:24:05;9.80;98.90
4697;DHT22;2362;50.780;0.292;2024-02-21T00:26:31;9.80;99.00
4697;DHT22;2362;50.780;0.292;2024-02-21T00:28:57;9.80;99.10
4697;DHT22;2362;50.780;0.292;2024-02-21T00:31:22;9.80;99.20
4697;DHT22;2362;50.780;0.292;2024-02-21T00:33:48;9.80;99.30
4697;DHT22;2362;50.780;0.292;2024-02-21T00:36:14;9.80;99.40
4697;DHT22;2362;50.780;0.292;2024-02-21T00:38:40;9.80;99.50
4697;DHT22;2362;50.780;0.292;2024-02-21T00:41:06;9.80;99.50
4697;DHT22;2362;50.780;0.292;2024-02-21T00:43:32;9.80;99.50
4697;DHT22;2362;50.780;0.292;2024-02-21T00:45:57;9.80;99.30
4697;DHT22;2362;50.780;0.292;2024-02-21T00:48:23;9.80;99.30
4697;DHT22;2362;50.780;0.292;2024-02-21T00:50:49;9.80;99.20
4697;DHT22;2362;50.780;0.292;2024-02-21T00:53:14;9.80;99.10
4697;DHT22;2362;50.780;0.292;2024-02-21T00:55:40;9.80;99.00
4697;DHT22;2362;50.780;0.292;2024-02-21T00:58:05;9.80;99.00
4697;DHT22;2362;50.780;0.292;2024-02-21T01:00:31;9.80;98.90
4697;DHT22;2362;50.780;0.292;2024-02-21T01:02:57;9.90;99.00
4697;DHT22;2362;50.780;0.292;2024-02-21T01:05:23;9.80;98.80
4697;DHT22;2362;50.780;0.292;2024-02-21T01:07:48;9.90;98.60
4697;DHT22;2362;50.780;0.292;2024-02-21T01:10:14;9.90;98.50
4697;DHT22;2362;50.780;0.292;2024-02-21T01:12:40;9.90;98.30
4697;DHT22;2362;50.780;0.292;2024-02-21T01:15:05;9.90;98.20
4697;DHT22;2362;50.780;0.292;2024-02-21T01:17:31;9.90;98.20
4697;DHT22;2362;50.780;0.292;2024-02-21T01:19:57;9.90;98.10
4697;DHT22;2362;50.780;0.292;2024-02-21T01:22:22;9.90;98.00
4697;DHT22;2362;50.780;0.292;2024-02-21T01:24:48;9.90;98.00
4697;DHT22;2362;50.780;0.292;2024-02-21T01:27:14;9.90;97.90
4697;DHT22;2362;50.780;0.292;2024-02-21T01:29:39;9.80;98.00
4697;DHT22;2362;50.780;0.292;2024-02-21T01:32:05;9.80;98.00
4697;DHT22;2362;50.780;0.292;2024-02-21T01:34:31;9.80;97.80
4697;DHT22;2362;50.780;0.292;2024-02-21T01:36:56;9.80;97.80
4697;DHT22;2362;50.780;0.292;2024-02-21T01:39:22;9.80;97.80
4697;DHT22;2362;50.780;0.292;2024-02-21T01:41:47;9.70;97.90
4697;DHT22;2362;50.780;0.292;2024-02-21T01:44:13;9.80;98.00
4697;DHT22;2362;50.780;0.292;2024-02-21T01:46:39;9.80;97.90
4697;DHT22;2362;50.780;0.292;2024-02-21T01:49:05;9.80;97.70
4697;DHT22;2362;50.780;0.292;2024-02-21T01:51:31;9.80;97.80
4697;DHT22;2362;50.780;0.292;2024-02-21T01:53:57;9.80;97.90
4697;DHT22;2362;50.780;0.292;2024-02-21T01:56:24;9.80;97.90
4697;DHT22;2362;50.780;0.292;2024-02-21T01:58:51;9.80;98.00
4697;DHT22;2362;50.780;0.292;2024-02-21T02:01:16;9.80;98.00
4697;DHT22;2362;50.780;0.292;2024-02-21T02:03:42;9.70;97.80
4697;DHT22;2362;50.780;0.292;2024-02-21T02:06:10;9.70;97.70
4697;DHT22;2362;50.780;0.292;2024-02-21T02:08:36;9.70;97.90
4697;DHT22;2362;50.780;0.292;2024-02-21T02:11:02;9.70;97.90
4697;DHT22;2362;50.780;0.292;2024-02-21T02:13:27;9.70;97.80
4697;DHT22;2362;50.780;0.292;2024-02-21T02:15:54;9.70;97.90
4697;DHT22;2362;50.780;0.292;2024-02-21T02:18:20;9.70;97.90
4697;DHT22;2362;50.780;0.292;2024-02-21T02:20:47;9.70;97.80
4697;DHT22;2362;50.780;0.292;2024-02-21T02:23:40;9.70;97.80
4697;DHT22;2362;50.780;0.292;2024-02-21T02:26:06;9.70;97.90
4697;DHT22;2362;50.780;0.292;2024-02-21T02:28:33;9.70;97.90
4697;DHT22;2362;50.780;0.292;2024-02-21T02:30:59;9.70;98.00
4697;DHT22;2362;50.780;0.292;2024-02-21T02:33:24;9.70;98.20
4697;DHT22;2362;50.780;0.292;2024-02-21T02:35:55;9.70;98.30
4697;DHT22;2362;50.780;0.292;2024-02-21T02:38:21;9.70;98.20
4697;DHT22;2362;50.780;0.292;2024-02-21T02:40:47;9.80;98.20
4697;DHT22;2362;50.780;0.292;2024-02-21T02:43:12;9.80;98.30
4697;DHT22;2362;50.780;0.292;2024-02-21T02:45:38;9.80;98.20
4697;DHT22;2362;50.780;0.292;2024-02-21T02:48:04;9.80;98.30
4697;DHT22;2362;50.780;0.292;2024-02-21T02:50:29;9.90;98.40
4697;DHT22;2362;50.780;0.292;2024-02-21T02:52:55;9.90;98.40
4697;DHT22;2362;50.780;0.292;2024-02-21T02:55:21;9.90;98.40
4697;DHT22;2362;50.780;0.292;2024-02-21T02:57:47;9.80;98.20
4697;DHT22;2362;50.780;0.292;2024-02-21T03:00:14;9.80;98.10
4697;DHT22;2362;50.780;0.292;2024-02-21T03:02:46;9.80;98.00
4697;DHT22;2362;50.780;0.292;2024-02-21T03:05:15;9.80;97.90
4697;DHT22;2362;50.780;0.292;2024-02-21T03:07:41;9.80;98.10
4697;DHT22;2362;50.780;0.292;2024-02-21T03:10:07;9.70;98.20
4697;DHT22;2362;50.780;0.292;2024-02-21T03:12:33;9.70;98.20
4697;DHT22;2362;50.780;0.292;2024-02-21T03:14:59;9.70;98.30
4697;DHT22;2362;50.780;0.292;2024-02-21T03:17:25;9.70;98.30
4697;DHT22;2362;50.780;0.292;2024-02-21T03:19:52;9.80;98.40
4697;DHT22;2362;50.780;0.292;2024-02-21T03:22:18;9.80;98.50
4697;DHT22;2362;50.780;0.292;2024-02-21T03:24:44;9.80;98.50
4697;DHT22;2362;50.780;0.292;2024-02-21T03:27:10;9.80;98.40
4697;DHT22;2362;50.780;0.292;2024-02-21T03:29:35;9.80;98.50
4697;DHT22;2362;50.780;0.292;2024-02-21T03:32:01;9.70;98.50
4697;DHT22;2362;50.780;0.292;2024-02-21T03:34:26;9.70;98.60
4697;DHT22;2362;50.780;0.292;2024-02-21T03:36:52;9.80;98.50
4697;DHT22;2362;50.780;0.292;2024-02-21T03:39:18;9.80;98.40
4697;DHT22;2362;50.780;0.292;2024-02-21T03:41:44;9.80;98.30
4697;DHT22;2362;50.780;0.292;2024-02-21T03:44:09;9.80;98.20
4697;DHT22;2362;50.780;0.292;2024-02-21T03:46:35;9.80;98.00
4697;DHT22;2362;50.780;0.292;2024-02-21T03:49:00;9.80;98.00
4697;DHT22;2362;50.780;0.292;2024-02-21T03:51:26;9.80;97.90
4697;DHT22;2362;50.780;0.292;2024-02-21T03:53:52;9.80;97.90
4697;DHT22;2362;50.780;0.292;2024-02-21T03:56:17;9.80;97.90
4697;DHT22;2362;50.780;0.292;2024-02-21T03:58:43;9.70;97.90
4697;DHT22;2362;50.780;0.292;2024-02-21T04:01:09;9.70;97.80
4697;DHT22;2362;50.780;0.292;2024-02-21T04:03:34;9.70;97.80
4697;DHT22;2362;50.780;0.292;2024-02-21T04:06:00;9.70;97.90
4697;DHT22;2362;50.780;0.292;2024-02-21T04:08:25;9.80;97.80
4697;DHT22;2362;50.780;0.292;2024-02-21T04:10:51;9.70;97.70
4697;DHT22;2362;50.780;0.292;2024-02-21T04:13:17;9.70;97.60
4697;DHT22;2362;50.780;0.292;2024-02-21T04:15:42;9.70;97.70
4697;DHT22;2362;50.780;0.292;2024-02-21T04:18:08;9.70;98.00
4697;DHT22;2362;50.780;0.292;2024-02-21T04:20:34;9.70;97.70
4697;DHT22;2362;50.780;0.292;2024-02-21T04:23:00;9.80;97.60
4697;DHT22;2362;50.780;0.292;2024-02-21T04:25:26;9.70;97.40
4697;DHT22;2362;50.780;0.292;2024-02-21T04:27:51;9.70;97.40
4697;DHT22;2362;50.780;0.292;2024-02-21T04:30:17;9.70;97.40
4697;DHT22;2362;50.780;0.292;2024-02-21T04:32:43;9.70;97.40
4697;DHT22;2362;50.780;0.292;2024-02-21T04:35:09;9.60;97.30
4697;DHT22;2362;50.780;0.292;2024-02-21T04:37:34;9.70;97.20
4697;DHT22;2362;50.780;0.292;2024-02-21T04:40:00;9.60;97.20
4697;DHT22;2362;50.780;0.292;2024-02-21T04:42:26;9.60;97.10
4697;DHT22;2362;50.780;0.292;2024-02-21T04:44:52;9.60;97.00
4697;DHT22;2362;50.780;0.292;2024-02-21T04:47:17;9.70;96.90
4697;DHT22;2362;50.780;0.292;2024-02-21T04:49:45;9.60;97.00
4697;DHT22;2362;50.780;0.292;2024-02-21T04:52:11;9.60;97.00
4697;DHT22;2362;50.780;0.292;2024-02-21T04:54:37;9.60;97.00
4697;DHT22;2362;50.780;0.292;2024-02-21T04:57:03;9.60;97.10
4697;DHT22;2362;50.780;0.292;2024-02-21T04:59:28;9.60;97.00
4697;DHT22;2362;50.780;0.292;2024-02-21T05:01:55;9.60;97.00
4697;DHT22;2362;50.780;0.292;2024-02-21T05:04:20;9.60;97.00
4697;DHT22;2362;50.780;0.292;2024-02-21T05:06:46;9.70;97.00
4697;DHT22;2362;50.780;0.292;2024-02-21T05:09:12;9.70;97.00
4697;DHT22;2362;50.780;0.292;2024-02-21T05:11:38;9.70;96.90
4697;DHT22;2362;50.780;0.292;2024-02-21T05:14:04;9.70;97.00
4697;DHT22;2362;50.780;0.292;2024-02-21T05:16:30;9.70;97.10
4697;DHT22;2362;50.780;0.292;2024-02-21T05:18:56;9.70;97.20
4697;DHT22;2362;50.780;0.292;2024-02-21T05:21:25;9.70;97.40
4697;DHT22;2362;50.780;0.292;2024-02-21T05:23:53;9.70;97.50
4697;DHT22;2362;50.780;0.292;2024-02-21T05:26:24;9.60;97.60
4697;DHT22;2362;50.780;0.292;2024-02-21T05:28:49;9.60;97.80
4697;DHT22;2362;50.780;0.292;2024-02-21T05:31:16;9.60;97.80
4697;DHT22;2362;50.780;0.292;2024-02-21T05:33:43;9.60;97.90
4697;DHT22;2362;50.780;0.292;2024-02-21T05:36:08;9.60;98.10
4697;DHT22;2362;50.780;0.292;2024-02-21T05:38:34;9.60;98.20
4697;DHT22;2362;50.780;0.292;2024-02-21T05:41:00;9.60;98.20
4697;DHT22;2362;50.780;0.292;2024-02-21T05:43:26;9.60;98.20
4697;DHT22;2362;50.780;0.292;2024-02-21T05:45:52;9.60;98.40
4697;DHT22;2362;50.780;0.292;2024-02-21T05:48:17;9.60;98.40
4697;DHT22;2362;50.780;0.292;2024-02-21T05:50:43;9.60;98.90
4697;DHT22;2362;50.780;0.292;2024-02-21T05:53:08;9.60;98.60
4697;DHT22;2362;50.780;0.292;2024-02-21T05:55:35;9.60;98.70
4697;DHT22;2362;50.780;0.292;2024-02-21T05:58:01;9.70;98.70
4697;DHT22;2362;50.780;0.292;2024-02-21T06:00:28;9.60;98.70
4697;DHT22;2362;50.780;0.292;2024-02-21T06:02:53;9.60;98.70
4697;DHT22;2362;50.780;0.292;2024-02-21T06:05:19;9.70;98.70
4697;DHT22;2362;50.780;0.292;2024-02-21T06:07:44;9.70;98.70
4697;DHT22;2362;50.780;0.292;2024-02-21T06:10:10;9.60;98.80
4697;DHT22;2362;50.780;0.292;2024-02-21T06:12:36;9.60;98.90
4697;DHT22;2362;50.780;0.292;2024-02-21T06:15:02;9.70;99.00
4697;DHT22;2362;50.780;0.292;2024-02-21T06:17:28;9.70;99.10
4697;DHT22;2362;50.780;0.292;2024-02-21T06:19:53;9.60;99.20
4697;DHT22;2362;50.780;0.292;2024-02-21T06:22:19;9.60;99.30
4697;DHT22;2362;50.780;0.292;2024-02-21T06:24:45;9.60;99.40
4697;DHT22;2362;50.780;0.292;2024-02-21T06:27:11;9.60;99.40
4697;DHT22;2362;50.780;0.292;2024-02-21T06:29:37;9.60;99.60
4697;DHT22;2362;50.780;0.292;2024-02-21T06:32:03;9.60;99.60
4697;DHT22;2362;50.780;0.292;2024-02-21T06:34:28;9.60;99.70
4697;DHT22;2362;50.780;0.292;2024-02-21T06:36:54;9.60;99.70
4697;DHT22;2362;50.780;0.292;2024-02-21T06:39:20;9.60;99.80
4697;DHT22;2362;50.780;0.292;2024-02-21T06:41:47;9.60;99.80
4697;DHT22;2362;50.780;0.292;2024-02-21T06:44:18;9.50;99.80
4697;DHT22;2362;50.780;0.292;2024-02-21T06:46:44;9.60;99.90
4697;DHT22;2362;50.780;0.292;2024-02-21T06:49:09;9.60;99.90
4697;DHT22;2362;50.780;0.292;2024-02-21T06:51:44;9.60;99.90
4697;DHT22;2362;50.780;0.292;2024-02-21T06:54:09;9.60;99.90
4697;DHT22;2362;50.780;0.292;2024-02-21T06:56:36;9.60;99.90
4697;DHT22;2362;50.780;0.292;2024-02-21T06:59:03;9.70;99.90
4697;DHT22;2362;50.780;0.292;2024-02-21T07:01:31;9.70;99.90
4697;DHT22;2362;50.780;0.292;2024-02-21T07:03:57;9.70;99.90
4697;DHT22;2362;50.780;0.292;2024-02-21T07:06:23;9.70;99.90
4697;DHT22;2362;50.780;0.292;2024-02-21T07:08:48;9.70;99.90
4697;DHT22;2362;50.780;0.292;2024-02-21T07:11:14;9.80;99.90
4697;DHT22;2362;50.780;0.292;2024-02-21T07:13:40;9.80;99.90
4697;DHT22;2362;50.780;0.292;2024-02-21T07:16:06;9.80;99.90
4697;DHT22;2362;50.780;0.292;2024-02-21T07:18:32;9.70;99.90
4697;DHT22;2362;50.780;0.292;2024-02-21T07:20:58;9.80;99.90
4697;DHT22;2362;50.780;0.292;2024-02-21T07:23:24;9.80;99.90
4697;DHT22;2362;50.780;0.292;2024-02-21T07:25:50;9.80;99.90
4697;DHT22;2362;50.780;0.292;2024-02-21T07:28:15;9.80;99.90
4697;DHT22;2362;50.780;0.292;2024-02-21T07:30:42;9.80;99.90
4697;DHT22;2362;50.780;0.292;2024-02-21T07:33:07;9.80;99.80
4697;DHT22;2362;50.780;0.292;2024-02-21T07:35:33;9.80;99.90
4697;DHT22;2362;50.780;0.292;2024-02-21T07:37:59;9.80;99.80
4697;DHT22;2362;50.780;0.292;2024-02-21T07:40:24;9.90;99.80
4697;DHT22;2362;50.780;0.292;2024-02-21T07:42:50;9.90;99.80
4697;DHT22;2362;50.780;0.292;2024-02-21T07:45:16;9.90;99.80
4697;DHT22;2362;50.780;0.292;2024-02-21T07:47:43;9.90;99.70
4697;DHT22;2362;50.780;0.292;2024-02-21T07:50:09;9.90;99.70
4697;DHT22;2362;50.780;0.292;2024-02-21T07:52:35;9.90;99.70
4697;DHT22;2362;50.780;0.292;2024-02-21T07:55:00;10.00;99.70
4697;DHT22;2362;50.780;0.292;2024-02-21T07:57:26;10.00;99.60
4697;DHT22;2362;50.780;0.292;2024-02-21T07:59:51;10.00;99.70
4697;DHT22;2362;50.780;0.292;2024-02-21T08:02:17;10.00;99.80
4697;DHT22;2362;50.780;0.292;2024-02-21T08:04:43;10.00;99.80
4697;DHT22;2362;50.780;0.292;2024-02-21T08:07:09;10.00;99.70
4697;DHT22;2362;50.780;0.292;2024-02-21T08:09:35;10.00;99.70
4697;DHT22;2362;50.780;0.292;2024-02-21T08:12:03;10.00;99.60
4697;DHT22;2362;50.780;0.292;2024-02-21T08:14:29;10.00;99.50
4697;DHT22;2362;50.780;0.292;2024-02-21T08:16:55;10.00;99.50
4697;DHT22;2362;50.780;0.292;2024-02-21T08:19:21;10.00;99.50
4697;DHT22;2362;50.780;0.292;2024-02-21T08:21:48;10.00;99.40
4697;DHT22;2362;50.780;0.292;2024-02-21T08:24:14;10.10;99.50
4697;DHT22;2362;50.780;0.292;2024-02-21T08:26:43;10.10;99.40
4697;DHT22;2362;50.780;0.292;2024-02-21T08:29:10;10.10;99.40
4697;DHT22;2362;50.780;0.292;2024-02-21T08:31:37;10.10;99.30
4697;DHT22;2362;50.780;0.292;2024-02-21T08:34:02;10.10;99.30
4697;DHT22;2362;50.780;0.292;2024-02-21T08:38:56;10.10;99.60
4697;DHT22;2362;50.780;0.292;2024-02-21T08:41:23;10.10;99.60
4697;DHT22;2362;50.780;0.292;2024-02-21T08:43:53;10.10;99.10
4697;DHT22;2362;50.780;0.292;2024-02-21T08:46:22;10.20;99.10
4697;DHT22;2362;50.780;0.292;2024-02-21T08:48:49;10.20;99.00
4697;DHT22;2362;50.780;0.292;2024-02-21T08:51:15;10.20;99.00
4697;DHT22;2362;50.780;0.292;2024-02-21T08:53:41;10.20;98.90
4697;DHT22;2362;50.780;0.292;2024-02-21T08:56:07;10.20;98.90
4697;DHT22;2362;50.780;0.292;2024-02-21T08:58:33;10.20;98.80
4697;DHT22;2362;50.780;0.292;2024-02-21T09:00:59;10.30;98.90
4697;DHT22;2362;50.780;0.292;2024-02-21T09:03:24;10.20;98.90
4697;DHT22;2362;50.780;0.292;2024-02-21T09:05:50;10.30;98.90
4697;DHT22;2362;50.780;0.292;2024-02-21T09:08:16;10.30;98.60
4697;DHT22;2362;50.780;0.292;2024-02-21T09:10:41;10.30;98.60
4697;DHT22;2362;50.780;0.292;2024-02-21T09:13:07;10.40;98.40
4697;DHT22;2362;50.780;0.292;2024-02-21T09:15:34;10.40;98.40
4697;DHT22;2362;50.780;0.292;2024-02-21T09:17:59;10.40;98.30
4697;DHT22;2362;50.780;0.292;2024-02-21T09:20:25;10.50;98.30
4697;DHT22;2362;50.780;0.292;2024-02-21T09:22:51;10.50;98.20
4697;DHT22;2362;50.780;0.292;2024-02-21T09:25:18;10.50;98.00
4697;DHT22;2362;50.780;0.292;2024-02-21T09:27:44;10.60;97.90
4697;DHT22;2362;50.780;0.292;2024-02-21T09:30:10;10.60;98.00
4697;DHT22;2362;50.780;0.292;2024-02-21T09:32:37;10.60;98.00
4697;DHT22;2362;50.780;0.292;2024-02-21T09:35:03;10.50;97.90
4697;DHT22;2362;50.780;0.292;2024-02-21T09:37:29;10.50;97.80
4697;DHT22;2362;50.780;0.292;2024-02-21T09:39:54;10.50;97.80
4697;DHT22;2362;50.780;0.292;2024-02-21T09:42:21;10.50;97.80
4697;DHT22;2362;50.780;0.292;2024-02-21T09:44:50;10.50;97.90
4697;DHT22;2362;50.780;0.292;2024-02-21T09:47:23;10.40;97.90
4697;DHT22;2362;50.780;0.292;2024-02-21T09:49:50;10.40;98.10
4697;DHT22;2362;50.780;0.292;2024-02-21T09:52:19;10.40;98.20
4697;DHT22;2362;50.780;0.292;2024-02-21T09:54:45;10.40;98.30
4697;DHT22;2362;50.780;0.292;2024-02-21T09:57:13;10.40;98.40
4697;DHT22;2362;50.780;0.292;2024-02-21T09:59:39;10.40;98.50
4697;DHT22;2362;50.780;0.292;2024-02-21T10:02:07;10.40;98.60
4697;DHT22;2362;50.780;0.292;2024-02-21T10:04:32;10.40;98.60
4697;DHT22;2362;50.780;0.292;2024-02-21T10:06:58;10.30;98.70
4697;DHT22;2362;50.780;0.292;2024-02-21T10:09:25;10.30;98.80
4697;DHT22;2362;50.780;0.292;2024-02-21T10:11:55;10.30;99.00
4697;DHT22;2362;50.780;0.292;2024-02-21T10:14:21;10.30;99.10
4697;DHT22;2362;50.780;0.292;2024-02-21T10:16:57;10.30;99.20
4697;DHT22;2362;50.780;0.292;2024-02-21T10:19:26;10.30;99.20
4697;DHT22;2362;50.780;0.292;2024-02-21T10:22:05;10.30;99.40
4697;DHT22;2362;50.780;0.292;2024-02-21T10:24:31;10.30;99.40
4697;DHT22;2362;50.780;0.292;2024-02-21T10:27:05;10.30;99.40
4697;DHT22;2362;50.780;0.292;2024-02-21T10:29:34;10.20;99.50
4697;DHT22;2362;50.780;0.292;2024-02-21T10:32:13;10.30;99.70
4697;DHT22;2362;50.780;0.292;2024-02-21T10:34:40;10.20;99.70
4697;DHT22;2362;50.780;0.292;2024-02-21T10:37:07;10.20;99.90
4697;DHT22;2362;50.780;0.292;2024-02-21T10:39:38;10.20;99.90
4697;DHT22;2362;50.780;0.292;2024-02-21T10:42:04;10.20;99.90
4697;DHT22;2362;50.780;0.292;2024-02-21T10:44:34;10.10;99.90
4697;DHT22;2362;50.780;0.292;2024-02-21T10:47:05;10.10;99.90
4697;DHT22;2362;50.780;0.292;2024-02-21T10:49:33;10.10;99.90
4697;DHT22;2362;50.780;0.292;2024-02-21T10:54:39;10.10;99.90
4697;DHT22;2362;50.780;0.292;2024-02-21T10:57:10;10.10;99.90
4697;DHT22;2362;50.780;0.292;2024-02-21T10:59:37;10.10;99.90
4697;DHT22;2362;50.780;0.292;2024-02-21T11:02:04;10.10;99.90
4697;DHT22;2362;50.780;0.292;2024-02-21T11:04:32;10.10;99.90
4697;DHT22;2362;50.780;0.292;2024-02-21T11:07:03;10.10;99.90
4697;DHT22;2362;50.780;0.292;2024-02-21T11:09:32;10.10;99.90
4697;DHT22;2362;50.780;0.292;2024-02-21T11:12:01;10.10;99.90
4697;DHT22;2362;50.780;0.292;2024-02-21T11:14:27;10.10;99.90
4697;DHT22;2362;50.780;0.292;2024-02-21T11:16:54;10.10;99.90
4697;DHT22;2362;50.780;0.292;2024-02-21T11:19:23;10.10;99.90
4697;DHT22;2362;50.780;0.292;2024-02-21T11:21:49;10.10;99.90
4697;DHT22;2362;50.780;0.292;2024-02-21T11:24:33;10.10;99.90
4697;DHT22;2362;50.780;0.292;2024-02-21T11:29:48;10.10;99.90
4697;DHT22;2362;50.780;0.292;2024-02-21T11:32:17;10.10;99.90
4697;DHT22;2362;50.780;0.292;2024-02-21T11:37:19;10.20;99.90
4697;DHT22;2362;50.780;0.292;2024-02-21T11:39:45;10.10;99.90
4697;DHT22;2362;50.780;0.292;2024-02-21T11:42:11;10.20;99.90
4697;DHT22;2362;50.780;0.292;2024-02-21T11:44:38;10.10;99.90
4697;DHT22;2362;50.780;0.292;2024-02-21T11:47:05;10.10;99.90
4697;DHT22;2362;50.780;0.292;2024-02-21T11:49:36;10.10;99.90
4697;DHT22;2362;50.780;0.292;2024-02-21T11:52:03;10.10;99.90
4697;DHT22;2362;50.780;0.292;2024-02-21T11:54:33;10.20;99.90
4697;DHT22;2362;50.780;0.292;2024-02-21T11:56:59;10.20;99.90
4697;DHT22;2362;50.780;0.292;2024-02-21T11:59:26;10.20;99.90
4697;DHT22;2362;50.780;0.292;2024-02-21T12:01:53;10.20;99.90
4697;DHT22;2362;50.780;0.292;2024-02-21T12:04:21;10.20;99.90
4697;DHT22;2362;50.780;0.292;2024-02-21T12:06:49;10.20;99.90
4697;DHT22;2362;50.780;0.292;2024-02-21T12:09:18;10.20;99.90
4697;DHT22;2362;50.780;0.292;2024-02-21T12:11:45;10.20;99.90
4697;DHT22;2362;50.780;0.292;2024-02-21T12:14:16;10.20;99.90
4697;DHT22;2362;50.780;0.292;2024-02-21T12:16:41;10.20;99.90
4697;DHT22;2362;50.780;0.292;2024-02-21T12:19:10;10.20;99.90
4697;DHT22;2362;50.780;0.292;2024-02-21T12:21:35;10.20;99.90
4697;DHT22;2362;50.780;0.292;2024-02-21T12:24:14;10.20;99.90
4697;DHT22;2362;50.780;0.292;2024-02-21T12:26:40;10.20;99.90
4697;DHT22;2362;50.780;0.292;2024-02-21T12:29:06;10.30;99.90
4697;DHT22;2362;50.780;0.292;2024-02-21T12:31:35;10.20;99.90
4697;DHT22;2362;50.780;0.292;2024-02-21T12:34:01;10.20;99.90
4697;DHT22;2362;50.780;0.292;2024-02-21T12:36:27;10.20;99.90
4697;DHT22;2362;50.780;0.292;2024-02-21T12:38:52;10.30;99.90
4697;DHT22;2362;50.780;0.292;2024-02-21T12:41:18;10.20;99.90
4697;DHT22;2362;50.780;0.292;2024-02-21T12:43:44;10.20;99.90
4697;DHT22;2362;50.780;0.292;2024-02-21T12:46:09;10.20;99.90
4697;DHT22;2362;50.780;0.292;2024-02-21T12:48:35;10.30;99.90
4697;DHT22;2362;50.780;0.292;2024-02-21T12:51:00;10.30;99.90
4697;DHT22;2362;50.780;0.292;2024-02-21T12:53:26;10.30;99.90
4697;DHT22;2362;50.780;0.292;2024-02-21T12:55:52;10.30;99.90
4697;DHT22;2362;50.780;0.292;2024-02-21T12:58:17;10.30;99.90
4697;DHT22;2362;50.780;0.292;2024-02-21T13:00:43;10.30;99.90
4697;DHT22;2362;50.780;0.292;2024-02-21T13:03:10;10.40;99.90
4697;DHT22;2362;50.780;0.292;2024-02-21T13:05:38;10.40;99.90
4697;DHT22;2362;50.780;0.292;2024-02-21T13:08:08;10.40;99.90
4697;DHT22;2362;50.780;0.292;2024-02-21T13:10:34;10.40;99.90
4697;DHT22;2362;50.780;0.292;2024-02-21T13:13:01;10.50;99.90
4697;DHT22;2362;50.780;0.292;2024-02-21T13:15:27;10.50;99.90
4697;DHT22;2362;50.780;0.292;2024-02-21T13:17:54;10.50;99.90
4697;DHT22;2362;50.780;0.292;2024-02-21T13:20:20;10.50;99.90
4697;DHT22;2362;50.780;0.292;2024-02-21T13:22:46;10.40;99.90
4697;DHT22;2362;50.780;0.292;2024-02-21T13:25:12;10.50;99.90
4697;DHT22;2362;50.780;0.292;2024-02-21T13:27:41;10.40;99.90
4697;DHT22;2362;50.780;0.292;2024-02-21T13:30:07;10.50;99.90
4697;DHT22;2362;50.780;0.292;2024-02-21T13:32:35;10.50;99.90
4697;DHT22;2362;50.780;0.292;2024-02-21T13:35:01;10.50;99.90
4697;DHT22;2362;50.780;0.292;2024-02-21T13:37:27;10.50;99.90
4697;DHT22;2362;50.780;0.292;2024-02-21T13:39:54;10.50;99.90
4697;DHT22;2362;50.780;0.292;2024-02-21T13:42:20;10.60;99.90
4697;DHT22;2362;50.780;0.292;2024-02-21T13:44:45;10.60;99.90
4697;DHT22;2362;50.780;0.292;2024-02-21T13:47:14;10.60;99.90
4697;DHT22;2362;50.780;0.292;2024-02-21T13:49:40;10.60;99.90
4697;DHT22;2362;50.780;0.292;2024-02-21T13:52:06;10.60;99.90
4697;DHT22;2362;50.780;0.292;2024-02-21T13:54:33;10.60;99.90
4697;DHT22;2362;50.780;0.292;2024-02-21T13:56:58;10.70;99.90
4697;DHT22;2362;50.780;0.292;2024-02-21T13:59:25;10.70;99.90
4697;DHT22;2362;50.780;0.292;2024-02-21T14:01:52;10.70;99.90
4697;DHT22;2362;50.780;0.292;2024-02-21T14:04:17;10.70;99.90
4697;DHT22;2362;50.780;0.292;2024-02-21T14:06:43;10.80;99.90
4697;DHT22;2362;50.780;0.292;2024-02-21T14:09:09;10.80;99.90
4697;DHT22;2362;50.780;0.292;2024-02-21T14:11:35;10.80;99.90
4697;DHT22;2362;50.780;0.292;2024-02-21T14:14:01;10.80;99.90
4697;DHT22;2362;50.780;0.292;2024-02-21T14:16:27;10.80;99.90
4697;DHT22;2362;50.780;0.292;2024-02-21T14:18:52;10.80;99.90
4697;DHT22;2362;50.780;0.292;2024-02-21T14:21:19;10.80;99.90
4697;DHT22;2362;50.780;0.292;2024-02-21T14:23:45;10.80;99.90
4697;DHT22;2362;50.780;0.292;2024-02-21T14:26:11;10.80;99.90
4697;DHT22;2362;50.780;0.292;2024-02-21T14:28:37;10.80;99.90
4697;DHT22;2362;50.780;0.292;2024-02-21T14:31:04;10.80;99.90
4697;DHT22;2362;50.780;0.292;2024-02-21T14:33:31;10.80;99.90
4697;DHT22;2362;50.780;0.292;2024-02-21T14:35:57;10.70;99.90
4697;DHT22;2362;50.780;0.292;2024-02-21T14:38:23;10.70;99.90
4697;DHT22;2362;50.780;0.292;2024-02-21T14:40:48;10.70;99.90
4697;DHT22;2362;50.780;0.292;2024-02-21T14:43:14;10.70;99.90
4697;DHT22;2362;50.780;0.292;2024-02-21T14:45:40;10.70;99.90
4697;DHT22;2362;50.780;0.292;2024-02-21T14:48:06;10.70;99.90
4697;DHT22;2362;50.780;0.292;2024-02-21T14:50:32;10.70;99.90
4697;DHT22;2362;50.780;0.292;2024-02-21T14:52:57;10.70;99.90
4697;DHT22;2362;50.780;0.292;2024-02-21T14:55:23;10.80;99.90
4697;DHT22;2362;50.780;0.292;2024-02-21T14:57:49;10.70;99.90
4697;DHT22;2362;50.780;0.292;2024-02-21T15:00:15;10.70;99.90
4697;DHT22;2362;50.780;0.292;2024-02-21T15:02:41;10.70;99.90
4697;DHT22;2362;50.780;0.292;2024-02-21T15:05:07;10.70;99.90
4697;DHT22;2362;50.780;0.292;2024-02-21T15:07:33;10.70;99.90
4697;DHT22;2362;50.780;0.292;2024-02-21T15:09:58;10.70;99.90
4697;DHT22;2362;50.780;0.292;2024-02-21T15:12:24;10.70;99.90
4697;DHT22;2362;50.780;0.292;2024-02-21T15:14:50;10.70;99.90
4697;DHT22;2362;50.780;0.292;2024-02-21T15:17:17;10.60;99.90
4697;DHT22;2362;50.780;0.292;2024-02-21T15:19:43;10.60;99.90
4697;DHT22;2362;50.780;0.292;2024-02-21T15:22:12;10.60;99.90
4697;DHT22;2362;50.780;0.292;2024-02-21T15:24:41;10.60;99.90
4697;DHT22;2362;50.780;0.292;2024-02-21T15:27:08;10.50;99.90
4697;DHT22;2362;50.780;0.292;2024-02-21T15:29:34;10.60;99.90
4697;DHT22;2362;50.780;0.292;2024-02-21T15:32:01;10.60;99.90
4697;DHT22;2362;50.780;0.292;2024-02-21T15:34:28;10.50;99.90
4697;DHT22;2362;50.780;0.292;2024-02-21T15:36:53;10.50;99.90
4697;DHT22;2362;50.780;0.292;2024-02-21T15:39:19;10.50;99.90
4697;DHT22;2362;50.780;0.292;2024-02-21T15:41:45;10.50;99.90
4697;DHT22;2362;50.780;0.292;2024-02-21T15:44:10;10.50;99.90
4697;DHT22;2362;50.780;0.292;2024-02-21T15:46:36;10.50;99.90
4697;DHT22;2362;50.780;0.292;2024-02-21T15:49:03;10.50;99.90
4697;DHT22;2362;50.780;0.292;2024-02-21T15:51:28;10.50;99.90
4697;DHT22;2362;50.780;0.292;2024-02-21T15:53:58;10.50;99.90
4697;DHT22;2362;50.780;0.292;2024-02-21T15:56:24;10.50;99.90
4697;DHT22;2362;50.780;0.292;2024-02-21T15:58:50;10.50;99.90
4697;DHT22;2362;50.780;0.292;2024-02-21T16:01:16;10.50;99.90
4697;DHT22;2362;50.780;0.292;2024-02-21T16:03:42;10.50;99.90
4697;DHT22;2362;50.780;0.292;2024-02-21T16:06:07;10.50;99.90
4697;DHT22;2362;50.780;0.292;2024-02-21T16:08:34;10.50;99.90
4697;DHT22;2362;50.780;0.292;2024-02-21T16:11:04;10.50;99.90
4697;DHT22;2362;50.780;0.292;2024-02-21T16:13:30;10.50;99.90
4697;DHT22;2362;50.780;0.292;2024-02-21T16:15:56;10.50;99.90